sensor_id;sensor_type;location;lat;lon;timestamp;P1;durP1;ratioP1;P2;durP2;ratioP2
59062;SDS011;44851;45.648;9.004;2023-03-03T00:01:27;23.63;;;16.33;;
59062;SDS011;44851;45.648;9.004;2023-03-03T00:03:54;24.33;;;14.77;;
59062;SDS011;44851;45.648;9.004;2023-03-03T00:06:20;24.60;;;15.57;;
59062;SDS011;44851;45.648;9.004;2023-03-03T00:08:45;24.73;;;16.03;;
59062;SDS011;44851;45.648;9.004;2023-03-03T00:11:11;22.77;;;15.53;;
59062;SDS011;44851;45.648;9.004;2023-03-03T00:13:43;24.50;;;14.67;;
59062;SDS011;44851;45.648;9.004;2023-03-03T00:18:51;24.27;;;15.07;;
59062;SDS011;44851;45.648;9.004;2023-03-03T00:21:30;21.83;;;14.53;;
59062;SDS011;44851;45.648;9.004;2023-03-03T00:26:36;23.63;;;15.50;;
59062;SDS011;44851;45.648;9.004;2023-03-03T00:29:18;21.17;;;14.83;;
59062;SDS011;44851;45.648;9.004;2023-03-03T00:34:37;22.73;;;14.70;;
59062;SDS011;44851;45.648;9.004;2023-03-03T00:37:02;21.90;;;13.93;;
59062;SDS011;44851;45.648;9.004;2023-03-03T00:39:39;21.60;;;14.57;;
59062;SDS011;44851;45.648;9.004;2023-03-03T00:42:09;20.37;;;14.60;;
59062;SDS011;44851;45.648;9.004;2023-03-03T00:44:41;22.07;;;14.07;;
59062;SDS011;44851;45.648;9.004;2023-03-03T00:47:27;22.80;;;14.57;;
59062;SDS011;44851;45.648;9.004;2023-03-03T00:52:58;17.90;;;12.43;;
59062;SDS011;44851;45.648;9.004;2023-03-03T00:55:31;19.23;;;12.70;;
59062;SDS011;44851;45.648;9.004;2023-03-03T00:57:58;18.10;;;12.93;;
59062;SDS011;44851;45.648;9.004;2023-03-03T01:00:23;19.93;;;12.17;;
59062;SDS011;44851;45.648;9.004;2023-03-03T01:02:49;20.63;;;12.10;;
59062;SDS011;44851;45.648;9.004;2023-03-03T01:05:15;19.93;;;11.73;;
59062;SDS011;44851;45.648;9.004;2023-03-03T01:07:42;20.07;;;12.90;;
59062;SDS011;44851;45.648;9.004;2023-03-03T01:10:07;17.93;;;11.20;;
59062;SDS011;44851;45.648;9.004;2023-03-03T01:12:34;16.33;;;11.00;;
59062;SDS011;44851;45.648;9.004;2023-03-03T01:15:00;18.20;;;12.13;;
59062;SDS011;44851;45.648;9.004;2023-03-03T01:17:26;19.97;;;11.80;;
59062;SDS011;44851;45.648;9.004;2023-03-03T01:19:51;21.43;;;12.57;;
59062;SDS011;44851;45.648;9.004;2023-03-03T01:22:16;16.80;;;11.10;;
59062;SDS011;44851;45.648;9.004;2023-03-03T01:24:42;19.77;;;13.17;;
59062;SDS011;44851;45.648;9.004;2023-03-03T01:27:07;18.07;;;12.03;;
59062;SDS011;44851;45.648;9.004;2023-03-03T01:29:33;16.90;;;11.40;;
59062;SDS011;44851;45.648;9.004;2023-03-03T01:31:58;19.17;;;11.80;;
59062;SDS011;44851;45.648;9.004;2023-03-03T01:34:24;21.57;;;13.27;;
59062;SDS011;44851;45.648;9.004;2023-03-03T01:36:49;19.57;;;12.30;;
59062;SDS011;44851;45.648;9.004;2023-03-03T01:39:14;22.60;;;13.00;;
59062;SDS011;44851;45.648;9.004;2023-03-03T01:41:40;23.17;;;12.30;;
59062;SDS011;44851;45.648;9.004;2023-03-03T01:44:05;19.70;;;12.70;;
59062;SDS011;44851;45.648;9.004;2023-03-03T01:49:13;19.63;;;12.30;;
59062;SDS011;44851;45.648;9.004;2023-03-03T01:52:02;18.10;;;11.87;;
59062;SDS011;44851;45.648;9.004;2023-03-03T01:54:37;18.43;;;11.43;;
59062;SDS011;44851;45.648;9.004;2023-03-03T01:57:09;19.30;;;11.27;;
59062;SDS011;44851;45.648;9.004;2023-03-03T01:59:41;18.37;;;11.60;;
59062;SDS011;44851;45.648;9.004;2023-03-03T02:02:11;19.70;;;12.03;;
59062;SDS011;44851;45.648;9.004;2023-03-03T02:04:37;21.10;;;11.20;;
59062;SDS011;44851;45.648;9.004;2023-03-03T02:07:07;18.67;;;11.13;;
59062;SDS011;44851;45.648;9.004;2023-03-03T02:12:24;18.40;;;11.77;;
59062;SDS011;44851;45.648;9.004;2023-03-03T02:14:55;18.40;;;11.60;;
59062;SDS011;44851;45.648;9.004;2023-03-03T02:17:21;19.53;;;12.13;;
59062;SDS011;44851;45.648;9.004;2023-03-03T02:22:15;21.20;;;12.37;;
59062;SDS011;44851;45.648;9.004;2023-03-03T02:24:48;19.80;;;12.87;;
59062;SDS011;44851;45.648;9.004;2023-03-03T02:27:17;19.17;;;12.60;;
59062;SDS011;44851;45.648;9.004;2023-03-03T02:29:43;21.23;;;13.23;;
59062;SDS011;44851;45.648;9.004;2023-03-03T02:32:09;20.67;;;13.13;;
59062;SDS011;44851;45.648;9.004;2023-03-03T02:34:47;20.20;;;13.30;;
59062;SDS011;44851;45.648;9.004;2023-03-03T02:37:14;22.53;;;13.43;;
59062;SDS011;44851;45.648;9.004;2023-03-03T02:39:40;21.03;;;13.57;;
59062;SDS011;44851;45.648;9.004;2023-03-03T02:42:09;20.70;;;12.13;;
59062;SDS011;44851;45.648;9.004;2023-03-03T02:44:41;20.17;;;13.40;;
59062;SDS011;44851;45.648;9.004;2023-03-03T02:47:06;22.50;;;14.60;;
59062;SDS011;44851;45.648;9.004;2023-03-03T02:49:33;21.87;;;13.50;;
59062;SDS011;44851;45.648;9.004;2023-03-03T02:52:01;21.47;;;13.30;;
59062;SDS011;44851;45.648;9.004;2023-03-03T02:54:28;18.67;;;12.20;;
59062;SDS011;44851;45.648;9.004;2023-03-03T02:56:55;24.37;;;14.67;;
59062;SDS011;44851;45.648;9.004;2023-03-03T02:59:20;21.23;;;14.03;;
59062;SDS011;44851;45.648;9.004;2023-03-03T03:01:46;22.50;;;14.07;;
59062;SDS011;44851;45.648;9.004;2023-03-03T03:04:13;21.77;;;13.27;;
59062;SDS011;44851;45.648;9.004;2023-03-03T03:06:40;23.50;;;13.40;;
59062;SDS011;44851;45.648;9.004;2023-03-03T03:09:06;24.67;;;14.20;;
59062;SDS011;44851;45.648;9.004;2023-03-03T03:11:33;22.20;;;13.87;;
59062;SDS011;44851;45.648;9.004;2023-03-03T03:14:00;21.57;;;14.47;;
59062;SDS011;44851;45.648;9.004;2023-03-03T03:16:26;22.93;;;13.47;;
59062;SDS011;44851;45.648;9.004;2023-03-03T03:18:52;21.23;;;13.47;;
59062;SDS011;44851;45.648;9.004;2023-03-03T03:21:17;23.50;;;13.43;;
59062;SDS011;44851;45.648;9.004;2023-03-03T03:23:43;20.17;;;13.20;;
59062;SDS011;44851;45.648;9.004;2023-03-03T03:26:08;20.23;;;13.17;;
59062;SDS011;44851;45.648;9.004;2023-03-03T03:28:34;22.80;;;14.17;;
59062;SDS011;44851;45.648;9.004;2023-03-03T03:30:59;21.37;;;14.03;;
59062;SDS011;44851;45.648;9.004;2023-03-03T03:33:27;21.07;;;13.70;;
59062;SDS011;44851;45.648;9.004;2023-03-03T03:35:53;20.37;;;13.50;;
59062;SDS011;44851;45.648;9.004;2023-03-03T03:38:19;21.80;;;14.20;;
59062;SDS011;44851;45.648;9.004;2023-03-03T03:40:45;23.87;;;14.30;;
59062;SDS011;44851;45.648;9.004;2023-03-03T03:43:11;21.20;;;13.40;;
59062;SDS011;44851;45.648;9.004;2023-03-03T03:45:36;22.83;;;14.43;;
59062;SDS011;44851;45.648;9.004;2023-03-03T03:48:02;22.80;;;13.13;;
59062;SDS011;44851;45.648;9.004;2023-03-03T03:50:28;23.17;;;14.03;;
59062;SDS011;44851;45.648;9.004;2023-03-03T03:52:53;22.73;;;14.73;;
59062;SDS011;44851;45.648;9.004;2023-03-03T03:55:18;22.77;;;14.67;;
59062;SDS011;44851;45.648;9.004;2023-03-03T03:57:44;23.50;;;15.23;;
59062;SDS011;44851;45.648;9.004;2023-03-03T04:00:10;23.93;;;14.40;;
59062;SDS011;44851;45.648;9.004;2023-03-03T04:02:37;24.00;;;14.30;;
59062;SDS011;44851;45.648;9.004;2023-03-03T04:05:03;23.23;;;14.90;;
59062;SDS011;44851;45.648;9.004;2023-03-03T04:07:29;23.37;;;14.53;;
59062;SDS011;44851;45.648;9.004;2023-03-03T04:09:54;24.87;;;15.37;;
59062;SDS011;44851;45.648;9.004;2023-03-03T04:12:20;24.50;;;14.33;;
59062;SDS011;44851;45.648;9.004;2023-03-03T04:14:45;27.37;;;15.50;;
59062;SDS011;44851;45.648;9.004;2023-03-03T04:17:15;26.07;;;15.27;;
59062;SDS011;44851;45.648;9.004;2023-03-03T04:19:42;23.50;;;14.00;;
59062;SDS011;44851;45.648;9.004;2023-03-03T04:22:07;25.20;;;14.33;;
59062;SDS011;44851;45.648;9.004;2023-03-03T04:24:32;27.43;;;15.20;;
59062;SDS011;44851;45.648;9.004;2023-03-03T04:26:58;25.60;;;14.07;;
59062;SDS011;44851;45.648;9.004;2023-03-03T04:29:25;21.17;;;14.27;;
59062;SDS011;44851;45.648;9.004;2023-03-03T04:31:50;25.67;;;15.13;;
59062;SDS011;44851;45.648;9.004;2023-03-03T04:34:15;27.07;;;16.33;;
59062;SDS011;44851;45.648;9.004;2023-03-03T04:36:41;25.40;;;15.00;;
59062;SDS011;44851;45.648;9.004;2023-03-03T04:39:06;24.27;;;15.07;;
59062;SDS011;44851;45.648;9.004;2023-03-03T04:41:32;26.87;;;16.37;;
59062;SDS011;44851;45.648;9.004;2023-03-03T04:43:57;22.00;;;14.90;;
59062;SDS011;44851;45.648;9.004;2023-03-03T04:46:22;27.03;;;15.80;;
59062;SDS011;44851;45.648;9.004;2023-03-03T04:48:48;28.40;;;15.87;;
59062;SDS011;44851;45.648;9.004;2023-03-03T04:51:13;25.00;;;14.67;;
59062;SDS011;44851;45.648;9.004;2023-03-03T04:53:40;24.23;;;14.90;;
59062;SDS011;44851;45.648;9.004;2023-03-03T04:56:06;25.07;;;15.03;;
59062;SDS011;44851;45.648;9.004;2023-03-03T04:58:31;25.00;;;13.97;;
59062;SDS011;44851;45.648;9.004;2023-03-03T05:00:57;25.00;;;14.67;;
59062;SDS011;44851;45.648;9.004;2023-03-03T05:03:22;24.63;;;14.67;;
59062;SDS011;44851;45.648;9.004;2023-03-03T05:05:49;24.67;;;14.30;;
59062;SDS011;44851;45.648;9.004;2023-03-03T05:08:14;25.87;;;15.17;;
59062;SDS011;44851;45.648;9.004;2023-03-03T05:10:40;24.33;;;15.77;;
59062;SDS011;44851;45.648;9.004;2023-03-03T05:13:06;24.37;;;15.33;;
59062;SDS011;44851;45.648;9.004;2023-03-03T05:15:33;27.37;;;15.63;;
59062;SDS011;44851;45.648;9.004;2023-03-03T05:17:58;28.47;;;15.13;;
59062;SDS011;44851;45.648;9.004;2023-03-03T05:20:24;24.13;;;13.83;;
59062;SDS011;44851;45.648;9.004;2023-03-03T05:22:50;23.33;;;15.20;;
59062;SDS011;44851;45.648;9.004;2023-03-03T05:25:15;23.63;;;13.70;;
59062;SDS011;44851;45.648;9.004;2023-03-03T05:27:41;24.07;;;14.80;;
59062;SDS011;44851;45.648;9.004;2023-03-03T05:30:08;25.83;;;14.20;;
59062;SDS011;44851;45.648;9.004;2023-03-03T05:32:34;24.13;;;14.60;;
59062;SDS011;44851;45.648;9.004;2023-03-03T05:35:00;23.93;;;14.97;;
59062;SDS011;44851;45.648;9.004;2023-03-03T05:37:26;21.23;;;13.43;;
59062;SDS011;44851;45.648;9.004;2023-03-03T05:39:51;28.07;;;14.70;;
59062;SDS011;44851;45.648;9.004;2023-03-03T05:42:17;23.77;;;13.93;;
59062;SDS011;44851;45.648;9.004;2023-03-03T05:44:42;20.57;;;13.67;;
59062;SDS011;44851;45.648;9.004;2023-03-03T05:47:07;22.10;;;14.27;;
59062;SDS011;44851;45.648;9.004;2023-03-03T05:49:33;22.77;;;13.67;;
59062;SDS011;44851;45.648;9.004;2023-03-03T05:51:59;26.57;;;15.17;;
59062;SDS011;44851;45.648;9.004;2023-03-03T05:54:25;26.93;;;14.33;;
59062;SDS011;44851;45.648;9.004;2023-03-03T05:56:50;22.93;;;13.83;;
59062;SDS011;44851;45.648;9.004;2023-03-03T05:59:15;27.40;;;15.00;;
59062;SDS011;44851;45.648;9.004;2023-03-03T06:01:41;22.40;;;13.63;;
59062;SDS011;44851;45.648;9.004;2023-03-03T06:04:06;22.73;;;14.73;;
59062;SDS011;44851;45.648;9.004;2023-03-03T06:06:32;23.97;;;15.07;;
59062;SDS011;44851;45.648;9.004;2023-03-03T06:08:58;24.57;;;13.77;;
59062;SDS011;44851;45.648;9.004;2023-03-03T06:11:23;27.00;;;14.40;;
59062;SDS011;44851;45.648;9.004;2023-03-03T06:13:49;21.60;;;13.30;;
59062;SDS011;44851;45.648;9.004;2023-03-03T06:16:14;23.80;;;14.17;;
59062;SDS011;44851;45.648;9.004;2023-03-03T06:18:40;21.03;;;13.63;;
59062;SDS011;44851;45.648;9.004;2023-03-03T06:21:05;21.77;;;13.67;;
59062;SDS011;44851;45.648;9.004;2023-03-03T06:23:31;25.53;;;14.93;;
59062;SDS011;44851;45.648;9.004;2023-03-03T06:25:56;22.43;;;13.90;;
59062;SDS011;44851;45.648;9.004;2023-03-03T06:28:22;22.43;;;14.13;;
59062;SDS011;44851;45.648;9.004;2023-03-03T06:30:51;22.53;;;14.30;;
59062;SDS011;44851;45.648;9.004;2023-03-03T06:33:18;20.33;;;13.23;;
59062;SDS011;44851;45.648;9.004;2023-03-03T06:35:44;22.37;;;14.40;;
59062;SDS011;44851;45.648;9.004;2023-03-03T06:38:13;21.93;;;14.40;;
59062;SDS011;44851;45.648;9.004;2023-03-03T06:40:38;26.93;;;14.73;;
59062;SDS011;44851;45.648;9.004;2023-03-03T06:43:03;25.93;;;15.20;;
59062;SDS011;44851;45.648;9.004;2023-03-03T06:45:29;25.03;;;14.43;;
59062;SDS011;44851;45.648;9.004;2023-03-03T06:47:54;22.80;;;13.63;;
59062;SDS011;44851;45.648;9.004;2023-03-03T06:50:20;21.57;;;13.63;;
59062;SDS011;44851;45.648;9.004;2023-03-03T06:52:45;24.07;;;14.63;;
59062;SDS011;44851;45.648;9.004;2023-03-03T06:55:12;26.30;;;15.87;;
59062;SDS011;44851;45.648;9.004;2023-03-03T06:57:45;22.47;;;13.60;;
59062;SDS011;44851;45.648;9.004;2023-03-03T07:00:13;21.63;;;14.27;;
59062;SDS011;44851;45.648;9.004;2023-03-03T07:02:40;19.93;;;13.13;;
59062;SDS011;44851;45.648;9.004;2023-03-03T07:05:10;25.13;;;14.50;;
59062;SDS011;44851;45.648;9.004;2023-03-03T07:07:40;23.47;;;14.67;;
59062;SDS011;44851;45.648;9.004;2023-03-03T07:10:06;25.50;;;14.97;;
59062;SDS011;44851;45.648;9.004;2023-03-03T07:12:41;23.37;;;14.33;;
59062;SDS011;44851;45.648;9.004;2023-03-03T07:15:14;23.97;;;14.30;;
59062;SDS011;44851;45.648;9.004;2023-03-03T07:17:41;27.97;;;14.83;;
59062;SDS011;44851;45.648;9.004;2023-03-03T07:20:55;26.53;;;16.20;;
59062;SDS011;44851;45.648;9.004;2023-03-03T07:25:57;29.00;;;18.43;;
59062;SDS011;44851;45.648;9.004;2023-03-03T07:28:27;28.13;;;18.73;;
59062;SDS011;44851;45.648;9.004;2023-03-03T07:30:54;31.30;;;17.20;;
59062;SDS011;44851;45.648;9.004;2023-03-03T07:33:25;25.47;;;16.17;;
59062;SDS011;44851;45.648;9.004;2023-03-03T07:39:23;23.17;;;14.73;;
59062;SDS011;44851;45.648;9.004;2023-03-03T07:44:54;28.23;;;15.93;;
59062;SDS011;44851;45.648;9.004;2023-03-03T07:50:07;25.83;;;15.67;;
59062;SDS011;44851;45.648;9.004;2023-03-03T07:52:41;28.60;;;16.93;;
59062;SDS011;44851;45.648;9.004;2023-03-03T07:55:19;25.33;;;15.80;;
59062;SDS011;44851;45.648;9.004;2023-03-03T07:58:14;24.60;;;15.43;;
59062;SDS011;44851;45.648;9.004;2023-03-03T08:03:45;29.17;;;16.53;;
59062;SDS011;44851;45.648;9.004;2023-03-03T08:08:48;30.33;;;16.97;;
59062;SDS011;44851;45.648;9.004;2023-03-03T08:11:13;26.50;;;15.60;;
59062;SDS011;44851;45.648;9.004;2023-03-03T08:13:39;27.33;;;17.23;;
59062;SDS011;44851;45.648;9.004;2023-03-03T08:18:39;28.30;;;16.90;;
59062;SDS011;44851;45.648;9.004;2023-03-03T08:21:13;26.00;;;15.73;;
59062;SDS011;44851;45.648;9.004;2023-03-03T08:23:41;31.47;;;18.37;;
59062;SDS011;44851;45.648;9.004;2023-03-03T08:26:07;32.20;;;17.70;;
59062;SDS011;44851;45.648;9.004;2023-03-03T08:28:33;27.90;;;17.03;;
59062;SDS011;44851;45.648;9.004;2023-03-03T08:30:59;31.70;;;16.20;;
59062;SDS011;44851;45.648;9.004;2023-03-03T08:33:24;26.33;;;15.00;;
59062;SDS011;44851;45.648;9.004;2023-03-03T08:35:50;33.10;;;16.90;;
59062;SDS011;44851;45.648;9.004;2023-03-03T08:38:17;27.00;;;17.40;;
59062;SDS011;44851;45.648;9.004;2023-03-03T08:40:43;26.53;;;16.30;;
59062;SDS011;44851;45.648;9.004;2023-03-03T08:43:09;28.40;;;17.30;;
59062;SDS011;44851;45.648;9.004;2023-03-03T08:45:37;25.83;;;16.17;;
59062;SDS011;44851;45.648;9.004;2023-03-03T08:48:03;26.53;;;17.07;;
59062;SDS011;44851;45.648;9.004;2023-03-03T08:50:29;26.57;;;16.93;;
59062;SDS011;44851;45.648;9.004;2023-03-03T08:52:55;25.10;;;16.83;;
59062;SDS011;44851;45.648;9.004;2023-03-03T08:55:21;30.70;;;18.00;;
59062;SDS011;44851;45.648;9.004;2023-03-03T08:57:46;27.80;;;17.23;;
59062;SDS011;44851;45.648;9.004;2023-03-03T09:00:13;24.80;;;16.07;;
59062;SDS011;44851;45.648;9.004;2023-03-03T09:02:40;27.20;;;16.97;;
59062;SDS011;44851;45.648;9.004;2023-03-03T09:05:06;30.03;;;17.03;;
59062;SDS011;44851;45.648;9.004;2023-03-03T09:07:32;28.80;;;17.07;;
59062;SDS011;44851;45.648;9.004;2023-03-03T09:09:58;27.67;;;16.87;;
59062;SDS011;44851;45.648;9.004;2023-03-03T09:14:55;25.20;;;17.47;;
59062;SDS011;44851;45.648;9.004;2023-03-03T09:17:29;32.33;;;18.50;;
59062;SDS011;44851;45.648;9.004;2023-03-03T09:22:51;31.73;;;18.00;;
59062;SDS011;44851;45.648;9.004;2023-03-03T09:27:56;29.57;;;18.43;;
59062;SDS011;44851;45.648;9.004;2023-03-03T09:32:50;28.57;;;18.27;;
59062;SDS011;44851;45.648;9.004;2023-03-03T09:38:11;31.20;;;18.73;;
59062;SDS011;44851;45.648;9.004;2023-03-03T09:43:35;38.43;;;21.17;;
59062;SDS011;44851;45.648;9.004;2023-03-03T09:49:35;32.00;;;20.13;;
59062;SDS011;44851;45.648;9.004;2023-03-03T09:57:55;33.10;;;18.27;;
59062;SDS011;44851;45.648;9.004;2023-03-03T10:03:34;33.67;;;18.80;;
59062;SDS011;44851;45.648;9.004;2023-03-03T10:06:24;34.73;;;19.43;;
59062;SDS011;44851;45.648;9.004;2023-03-03T10:18:00;50.83;;;27.83;;
59062;SDS011;44851;45.648;9.004;2023-03-03T10:20:49;30.80;;;17.77;;
59062;SDS011;44851;45.648;9.004;2023-03-03T10:26:22;34.50;;;21.37;;
59062;SDS011;44851;45.648;9.004;2023-03-03T10:29:05;30.47;;;19.23;;
59062;SDS011;44851;45.648;9.004;2023-03-03T10:32:01;38.17;;;23.83;;
59062;SDS011;44851;45.648;9.004;2023-03-03T10:37:38;26.53;;;18.23;;
59062;SDS011;44851;45.648;9.004;2023-03-03T10:45:42;23.90;;;15.43;;
59062;SDS011;44851;45.648;9.004;2023-03-03T10:51:07;22.83;;;15.03;;
59062;SDS011;44851;45.648;9.004;2023-03-03T10:56:44;28.10;;;18.77;;
59062;SDS011;44851;45.648;9.004;2023-03-03T11:02:25;19.30;;;13.77;;
59062;SDS011;44851;45.648;9.004;2023-03-03T11:05:16;23.20;;;15.07;;
59062;SDS011;44851;45.648;9.004;2023-03-03T11:08:25;22.27;;;15.03;;
59062;SDS011;44851;45.648;9.004;2023-03-03T11:10:59;25.43;;;17.83;;
59062;SDS011;44851;45.648;9.004;2023-03-03T11:19:04;26.03;;;16.10;;
59062;SDS011;44851;45.648;9.004;2023-03-03T11:21:55;25.10;;;15.33;;
59062;SDS011;44851;45.648;9.004;2023-03-03T11:27:05;21.17;;;14.50;;
59062;SDS011;44851;45.648;9.004;2023-03-03T11:29:43;22.50;;;14.97;;
59062;SDS011;44851;45.648;9.004;2023-03-03T11:37:54;19.97;;;14.10;;
59062;SDS011;44851;45.648;9.004;2023-03-03T11:43:42;25.00;;;14.03;;
59062;SDS011;44851;45.648;9.004;2023-03-03T11:46:15;23.13;;;14.63;;
59062;SDS011;44851;45.648;9.004;2023-03-03T11:48:57;19.30;;;12.77;;
59062;SDS011;44851;45.648;9.004;2023-03-03T11:54:14;16.40;;;10.93;;
59062;SDS011;44851;45.648;9.004;2023-03-03T11:56:48;17.13;;;10.80;;
59062;SDS011;44851;45.648;9.004;2023-03-03T12:02:01;15.80;;;11.00;;
59062;SDS011;44851;45.648;9.004;2023-03-03T12:04:40;19.87;;;11.37;;
59062;SDS011;44851;45.648;9.004;2023-03-03T12:10:16;16.13;;;11.80;;
59062;SDS011;44851;45.648;9.004;2023-03-03T12:12:58;15.77;;;10.17;;
59062;SDS011;44851;45.648;9.004;2023-03-03T12:18:35;17.67;;;11.87;;
59062;SDS011;44851;45.648;9.004;2023-03-03T12:30:05;16.23;;;10.27;;
59062;SDS011;44851;45.648;9.004;2023-03-03T12:49:09;9.47;;;6.10;;
59062;SDS011;44851;45.648;9.004;2023-03-03T12:54:28;8.37;;;7.50;;
59062;SDS011;44851;45.648;9.004;2023-03-03T13:10:41;8.17;;;5.80;;
59062;SDS011;44851;45.648;9.004;2023-03-03T13:13:17;11.53;;;6.43;;
59062;SDS011;44851;45.648;9.004;2023-03-03T13:21:31;12.37;;;7.03;;
59062;SDS011;44851;45.648;9.004;2023-03-03T13:24:22;11.50;;;8.50;;
59062;SDS011;44851;45.648;9.004;2023-03-03T13:26:52;9.87;;;7.00;;
59062;SDS011;44851;45.648;9.004;2023-03-03T13:29:23;13.70;;;7.13;;
59062;SDS011;44851;45.648;9.004;2023-03-03T13:34:39;10.90;;;6.60;;
59062;SDS011;44851;45.648;9.004;2023-03-03T13:37:43;9.53;;;6.53;;
59062;SDS011;44851;45.648;9.004;2023-03-03T13:45:22;10.13;;;7.27;;
59062;SDS011;44851;45.648;9.004;2023-03-03T13:56:47;10.80;;;6.53;;
59062;SDS011;44851;45.648;9.004;2023-03-03T14:02:36;6.97;;;5.57;;
59062;SDS011;44851;45.648;9.004;2023-03-03T14:10:18;9.83;;;6.57;;
59062;SDS011;44851;45.648;9.004;2023-03-03T14:15:49;9.87;;;6.97;;
59062;SDS011;44851;45.648;9.004;2023-03-03T14:18:35;9.60;;;6.27;;
59062;SDS011;44851;45.648;9.004;2023-03-03T14:21:17;8.00;;;5.80;;
59062;SDS011;44851;45.648;9.004;2023-03-03T14:26:44;9.30;;;6.07;;
59062;SDS011;44851;45.648;9.004;2023-03-03T14:31:51;9.03;;;6.17;;
59062;SDS011;44851;45.648;9.004;2023-03-03T14:36:47;11.90;;;6.67;;
59062;SDS011;44851;45.648;9.004;2023-03-03T14:41:59;13.57;;;6.50;;
59062;SDS011;44851;45.648;9.004;2023-03-03T14:44:31;13.13;;;7.17;;
59062;SDS011;44851;45.648;9.004;2023-03-03T14:49:35;14.93;;;7.87;;
59062;SDS011;44851;45.648;9.004;2023-03-03T14:54:38;13.37;;;7.57;;
59062;SDS011;44851;45.648;9.004;2023-03-03T14:59:37;12.53;;;6.80;;
59062;SDS011;44851;45.648;9.004;2023-03-03T15:04:43;9.50;;;6.83;;
59062;SDS011;44851;45.648;9.004;2023-03-03T15:07:18;7.97;;;6.33;;
59062;SDS011;44851;45.648;9.004;2023-03-03T15:09:55;12.37;;;7.60;;
59062;SDS011;44851;45.648;9.004;2023-03-03T15:12:22;10.03;;;8.10;;
59062;SDS011;44851;45.648;9.004;2023-03-03T15:14:51;23.40;;;9.70;;
59062;SDS011;44851;45.648;9.004;2023-03-03T15:42:37;13.63;;;7.53;;
59062;SDS011;44851;45.648;9.004;2023-03-03T15:45:26;11.43;;;7.80;;
59062;SDS011;44851;45.648;9.004;2023-03-03T15:50:34;10.87;;;7.90;;
59062;SDS011;44851;45.648;9.004;2023-03-03T15:53:09;9.87;;;7.47;;
59062;SDS011;44851;45.648;9.004;2023-03-03T15:58:48;12.70;;;8.47;;
59062;SDS011;44851;45.648;9.004;2023-03-03T16:01:26;10.80;;;7.53;;
59062;SDS011;44851;45.648;9.004;2023-03-03T16:04:01;11.50;;;7.83;;
59062;SDS011;44851;45.648;9.004;2023-03-03T16:06:46;10.67;;;7.57;;
59062;SDS011;44851;45.648;9.004;2023-03-03T16:09:26;12.10;;;7.47;;
59062;SDS011;44851;45.648;9.004;2023-03-03T16:17:41;17.63;;;8.13;;
59062;SDS011;44851;45.648;9.004;2023-03-03T16:25:27;15.60;;;8.67;;
59062;SDS011;44851;45.648;9.004;2023-03-03T16:28:07;22.67;;;9.13;;
59062;SDS011;44851;45.648;9.004;2023-03-03T16:30:51;12.23;;;7.93;;
59062;SDS011;44851;45.648;9.004;2023-03-03T16:33:37;18.47;;;9.00;;
59062;SDS011;44851;45.648;9.004;2023-03-03T16:41:20;19.80;;;8.60;;
59062;SDS011;44851;45.648;9.004;2023-03-03T16:56:57;17.97;;;8.50;;
59062;SDS011;44851;45.648;9.004;2023-03-03T17:01:59;8.33;;;6.00;;
59062;SDS011;44851;45.648;9.004;2023-03-03T17:07:41;11.33;;;6.70;;
59062;SDS011;44851;45.648;9.004;2023-03-03T17:10:25;11.30;;;7.13;;
59062;SDS011;44851;45.648;9.004;2023-03-03T17:20:45;17.70;;;7.87;;
59062;SDS011;44851;45.648;9.004;2023-03-03T17:25:49;10.90;;;7.23;;
59062;SDS011;44851;45.648;9.004;2023-03-03T17:44:49;19.10;;;11.77;;
59062;SDS011;44851;45.648;9.004;2023-03-03T17:50:16;18.50;;;11.67;;
59062;SDS011;44851;45.648;9.004;2023-03-03T17:56:00;20.73;;;11.33;;
59062;SDS011;44851;45.648;9.004;2023-03-03T18:09:22;16.67;;;8.57;;
59062;SDS011;44851;45.648;9.004;2023-03-03T18:26:00;15.30;;;10.47;;
59062;SDS011;44851;45.648;9.004;2023-03-03T18:28:42;14.30;;;10.93;;
59062;SDS011;44851;45.648;9.004;2023-03-03T18:31:21;20.33;;;13.43;;
59062;SDS011;44851;45.648;9.004;2023-03-03T18:34:01;22.47;;;14.43;;
59062;SDS011;44851;45.648;9.004;2023-03-03T18:38:57;17.40;;;12.47;;
59062;SDS011;44851;45.648;9.004;2023-03-03T18:41:27;15.23;;;11.23;;
59062;SDS011;44851;45.648;9.004;2023-03-03T18:43:56;16.43;;;11.80;;
59062;SDS011;44851;45.648;9.004;2023-03-03T18:49:04;16.03;;;10.70;;
59062;SDS011;44851;45.648;9.004;2023-03-03T18:59:56;17.73;;;12.77;;
59062;SDS011;44851;45.648;9.004;2023-03-03T19:04:36;19.17;;;12.93;;
59062;SDS011;44851;45.648;9.004;2023-03-03T19:12:40;21.33;;;13.47;;
59062;SDS011;44851;45.648;9.004;2023-03-03T19:17:54;28.13;;;18.13;;
59062;SDS011;44851;45.648;9.004;2023-03-03T19:20:26;33.57;;;20.27;;
59062;SDS011;44851;45.648;9.004;2023-03-03T19:34:53;25.57;;;15.83;;
59062;SDS011;44851;45.648;9.004;2023-03-03T20:01:30;21.13;;;14.77;;
59062;SDS011;44851;45.648;9.004;2023-03-03T20:12:39;29.27;;;15.73;;
59062;SDS011;44851;45.648;9.004;2023-03-03T20:15:22;24.37;;;15.83;;
59062;SDS011;44851;45.648;9.004;2023-03-03T20:21:22;21.00;;;13.47;;
59062;SDS011;44851;45.648;9.004;2023-03-03T20:27:23;25.30;;;13.97;;
59062;SDS011;44851;45.648;9.004;2023-03-03T20:30:02;26.90;;;14.97;;
59062;SDS011;44851;45.648;9.004;2023-03-03T20:38:37;24.87;;;14.27;;
59062;SDS011;44851;45.648;9.004;2023-03-03T20:59:31;26.93;;;15.60;;
59062;SDS011;44851;45.648;9.004;2023-03-03T21:02:02;29.83;;;16.10;;
59062;SDS011;44851;45.648;9.004;2023-03-03T21:04:39;20.83;;;15.03;;
59062;SDS011;44851;45.648;9.004;2023-03-03T21:07:04;26.23;;;16.87;;
59062;SDS011;44851;45.648;9.004;2023-03-03T21:12:02;30.00;;;15.77;;
59062;SDS011;44851;45.648;9.004;2023-03-03T21:14:35;22.90;;;13.70;;
59062;SDS011;44851;45.648;9.004;2023-03-03T21:17:10;27.17;;;16.30;;
59062;SDS011;44851;45.648;9.004;2023-03-03T21:19:53;25.77;;;16.67;;
59062;SDS011;44851;45.648;9.004;2023-03-03T21:22:19;24.37;;;15.83;;
59062;SDS011;44851;45.648;9.004;2023-03-03T21:24:54;28.47;;;17.13;;
59062;SDS011;44851;45.648;9.004;2023-03-03T21:32:37;33.77;;;17.83;;
59062;SDS011;44851;45.648;9.004;2023-03-03T21:35:04;27.93;;;17.73;;
59062;SDS011;44851;45.648;9.004;2023-03-03T21:40:21;29.47;;;17.77;;
59062;SDS011;44851;45.648;9.004;2023-03-03T21:42:50;29.10;;;17.03;;
59062;SDS011;44851;45.648;9.004;2023-03-03T21:45:16;26.40;;;17.80;;
59062;SDS011;44851;45.648;9.004;2023-03-03T21:47:44;28.53;;;18.23;;
59062;SDS011;44851;45.648;9.004;2023-03-03T21:50:11;30.73;;;18.90;;
59062;SDS011;44851;45.648;9.004;2023-03-03T21:52:37;32.27;;;19.97;;
59062;SDS011;44851;45.648;9.004;2023-03-03T21:55:02;33.13;;;19.97;;
59062;SDS011;44851;45.648;9.004;2023-03-03T21:57:28;32.77;;;17.90;;
59062;SDS011;44851;45.648;9.004;2023-03-03T21:59:54;31.23;;;18.50;;
59062;SDS011;44851;45.648;9.004;2023-03-03T22:02:19;37.70;;;22.10;;
59062;SDS011;44851;45.648;9.004;2023-03-03T22:04:45;41.67;;;22.63;;
59062;SDS011;44851;45.648;9.004;2023-03-03T22:07:10;32.40;;;21.20;;
59062;SDS011;44851;45.648;9.004;2023-03-03T22:09:36;39.40;;;21.30;;
59062;SDS011;44851;45.648;9.004;2023-03-03T22:12:02;31.53;;;19.87;;
59062;SDS011;44851;45.648;9.004;2023-03-03T22:14:28;34.13;;;20.03;;
59062;SDS011;44851;45.648;9.004;2023-03-03T22:16:53;29.77;;;19.97;;